aussie ACE2'S WEATHER STATIONaussie

Speaker Icon Turns Ambient Background Sounds ON/OFF
Select which page style from below(a cookie will remember your selection for future use for style)
Standard Style Theme Current Conditions Style Changer

Latitude S 35° 06' 39"   Longitude E 138° 31' 40"   Elevation 102 m

OBSERVATIONS  0 - 24  HOURS

00-24 HOURS 24-48 HOURS 48-72 HOURS 72-96 HOURS 96-120 HOURS Navigation Menu

Date/Time
WST
temperature
°C
Dew Point
°C
Humidity
%
Wind Speed
km/h
Wind Gust
km/h
Wind
Direction
Barometer
mb
Rain Today
mm
23/11:30am 12.0 11.5 97 5.0 17.3 1022.6 4.5
23/11:00am 11.7 10.9 95 5.0 9.7 1022.7 2.7
23/10:30am 11.8 11.0 95 8.6 13.3 1022.3 0.3
23/10:00am 12.0 10.9 93 7.2 15.8 1022.3 0.3
23/09:30am 11.6 10.8 95 11.2 14.8 1021.9 0.3
23/09:00am 11.5 10.7 95 5.0 13.3 1021.9 0.3
23/08:30am 11.7 10.9 95 7.2 12.2 1021.6 0.3
23/08:00am 11.8 10.9 94 3.6 11.2 1021.5 0.0
23/07:30am 12.0 10.7 92 6.1 13.3 1021.1 0.0
23/07:00am 11.7 10.4 92 3.6 12.2 1021.0 0.0
23/06:30am 11.5 10.2 92 7.2 13.3 1021.0 0.0
23/06:00am 11.4 10.1 92 7.2 14.8 1020.9 0.0
23/05:30am 11.2 10.0 92 6.1 14.8 1020.7 0.0
23/05:00am 11.4 10.3 93 7.2 13.3 1020.7 0.0
23/04:30am 11.4 10.1 92 5.0 14.8 1020.6 0.0
23/04:00am 11.6 10.0 90 6.1 13.3 1020.9 0.0
23/03:30am 11.8 9.0 83 6.1 8.6 1020.7 0.0
23/03:00am 11.7 10.0 89 3.6 14.8 1021.0 0.0
23/02:30am 11.8 10.4 91 7.2 12.2 1021.4 0.0
23/02:00am 11.8 10.5 92 2.5 8.6 1021.3 0.0
23/01:30am 11.8 10.5 92 7.2 11.2 1021.4 0.0
23/01:00am 11.9 10.5 91 5.0 8.6 1021.5 0.0
23/12:30am 11.7 10.3 91 3.6 8.6 1021.7 0.0
23/12:00am 11.6 10.0 90 3.6 6.1 1021.7 0.0
22/11:30pm 11.9 10.0 88 5.0 7.2 1022.0 0.3
22/11:00pm 12.0 9.6 85 2.5 6.1 1022.1 0.3
22/10:30pm 11.7 9.4 86 2.5 6.1 1022.1 0.3
22/10:00pm 10.6 8.7 88 0.0 2.5 1022.2 0.3
22/09:30pm 11.2 8.8 85 1.1 5.0 1022.2 0.3
22/09:00pm 11.8 8.8 82 0.0 3.6 1022.3 0.3
22/08:30pm 12.2 9.2 82 2.5 6.1 1022.3 0.3
22/08:00pm 12.3 9.3 82 5.0 7.2 1022.1 0.3
22/07:30pm 11.9 9.1 83 1.1 6.1 1022.0 0.3
22/07:00pm 11.6 8.8 83 1.1 5.0 1021.9 0.3
22/06:30pm 12.1 8.8 80 2.5 5.0 1021.7 0.3
22/06:00pm 12.9 8.6 75 2.5 5.0 1021.1 0.3
22/05:30pm 13.7 8.7 72 3.6 7.2 1021.2 0.3
22/05:00pm 13.9 8.7 71 3.6 7.2 1021.5 0.3
22/04:30pm 14.0 8.2 68 5.0 11.2 1021.3 0.3
22/04:00pm 14.5 8.0 65 7.2 13.3 1021.2 0.3
22/03:30pm 15.2 8.4 64 5.0 9.7 1021.0 0.3
22/03:00pm 15.2 8.0 62 6.1 13.3 1020.9 0.3
22/02:30pm 16.8 7.7 55 8.6 13.3 1020.6 0.3
22/02:00pm 17.3 9.5 60 11.2 15.8 1020.8 0.3
22/01:30pm 16.8 9.2 61 8.6 14.8 1020.9 0.3
22/01:00pm 17.1 9.5 61 6.1 12.2 1021.1 0.3
22/12:30pm 16.5 9.2 62 8.6 15.8 1021.6 0.3
22/12:00pm 15.9 8.6 62 8.6 13.3 1021.8 0.3
22/11:30am 15.1 8.6 65 7.2 11.2 1022.1 0.3
22/11:00am 14.5 8.2 66 6.1 12.2 1022.2 0.3

OBSERVATIONS  24 - 48  HOURS

00-24 HOURS 24-48 HOURS 48-72 HOURS 72-96 HOURS 96-120 HOURS Navigation Menu

Date/Time
WST
temperature
°C
Dew Point
°C
Humidity
%
Wind Speed
km/h
Wind Gust
km/h
Wind
Direction
Barometer
mb
Rain Today
mm
22/11:30am 15.1 8.6 65 7.2 11.2 1022.1 0.3
22/11:00am 14.5 8.2 66 6.1 12.2 1022.2 0.3
22/10:30am 14.1 8.1 67 9.7 13.3 1022.2 0.3
22/10:00am 13.4 7.6 68 3.6 11.2 1022.4 0.3
22/09:30am 13.5 7.1 65 7.2 12.2 1022.4 0.3
22/09:00am 12.8 7.3 69 5.0 9.7 1022.0 0.3
22/08:30am 12.2 7.5 73 9.7 15.8 1021.9 0.3
22/08:00am 10.6 8.2 85 2.5 5.0 1021.9 0.3
22/07:30am 10.1 7.7 85 0.0 0.0 1021.5 0.3
22/07:00am 10.1 7.2 82 0.0 0.0 1021.2 0.3
22/06:30am 10.2 7.4 83 0.0 2.5 1020.4 0.3
22/06:00am 9.9 7.7 86 0.0 1.1 1020.6 0.3
22/05:30am 9.8 7.9 88 0.0 0.0 1020.3 0.3
22/05:00am 9.8 8.4 91 0.0 3.6 1019.9 0.3
22/04:30am 10.0 8.6 91 1.1 5.0 1019.8 0.3
22/04:00am 9.7 8.9 95 0.0 3.6 1019.5 0.3
22/03:30am 9.5 9.0 97 0.0 3.6 1019.3 0.3
22/03:00am 9.5 8.9 96 0.0 0.0 1019.1 0.3
22/02:30am 9.4 8.6 95 0.0 0.0 1019.1 0.3
22/02:00am 9.4 8.6 95 0.0 0.0 1019.3 0.3
22/01:30am 9.5 8.6 94 0.0 0.0 1019.5 0.3
22/01:00am 9.5 8.6 94 0.0 0.0 1019.5 0.3
22/12:30am 9.5 8.3 92 0.0 0.0 1019.4 0.3
22/12:00am 9.5 8.1 91 0.0 2.5 1019.7 0.0
21/11:30pm 9.6 8.2 91 0.0 2.5 1019.4 4.2
21/11:00pm 9.3 7.9 91 0.0 2.5 1019.2 4.2
21/10:30pm 9.2 7.8 91 0.0 1.1 1019.2 4.2
21/10:00pm 8.9 7.4 90 0.0 2.5 1019.1 4.2
21/09:30pm 9.0 7.3 89 0.0 0.0 1018.8 4.2
21/09:00pm 9.3 7.6 89 0.0 0.0 1018.5 4.2
21/08:30pm 9.1 7.4 89 0.0 0.0 1018.1 4.2
21/08:00pm 8.8 6.8 87 0.0 0.0 1017.6 4.2
21/07:30pm 8.7 6.3 85 0.0 0.0 1017.3 4.2
21/07:00pm 9.4 6.3 81 0.0 0.0 1017.0 4.2
21/06:30pm 10.6 6.9 78 0.0 6.1 1016.5 4.2
21/06:00pm 11.0 6.7 75 3.6 12.2 1016.0 4.2
21/05:30pm 11.6 6.9 73 5.0 13.3 1015.7 4.2
21/05:00pm 12.2 7.3 72 6.1 13.3 1014.7 4.2
21/04:30pm 12.6 7.1 69 6.1 12.2 1014.0 4.2
21/04:00pm 12.6 7.3 70 6.1 14.8 1013.9 4.2
21/03:30pm 14.7 8.6 67 2.5 18.4 1013.1 4.2
21/03:00pm 13.8 9.0 73 1.1 8.6 1012.7 4.2
21/02:30pm 16.9 10.7 67 5.0 11.2 1012.2 4.2
21/02:00pm 13.1 9.9 81 8.6 14.8 1011.5 4.2
21/01:30pm 11.9 10.5 91 6.1 8.6 1011.0 4.2
21/01:00pm 12.5 9.9 84 2.5 6.1 1010.8 4.2
21/12:30pm 12.7 9.3 80 0.0 2.5 1010.6 4.2
21/12:00pm 12.6 8.3 75 3.6 8.6 1010.4 4.2
21/11:30am 12.8 8.5 75 3.6 12.2 1010.2 4.2
21/11:00am 12.8 8.5 75 6.1 15.8 1009.9 4.2

OBSERVATIONS  48 - 72  HOURS

00-24 HOURS 24-48 HOURS 48-72 HOURS 72-96 HOURS 96-120 HOURS Navigation Menu

Date/Time
WST
temperature
°C
Dew Point
°C
Humidity
%
Wind Speed
km/h
Wind Gust
km/h
Wind
Direction
Barometer
mb
Rain Today
mm
21/11:30am 12.8 8.5 75 3.6 12.2 1010.2 4.2
21/11:00am 12.8 8.5 75 6.1 15.8 1009.9 4.2
21/10:30am 11.1 8.3 83 7.2 13.3 1009.7 4.2
21/10:00am 10.1 8.0 87 12.2 17.3 1009.3 4.2
21/09:30am 9.1 7.5 90 9.7 13.3 1009.2 4.2
21/09:00am 8.8 6.9 88 7.2 14.8 1008.8 4.2
21/08:31am 8.5 6.3 86 9.7 17.3 1008.4 4.2
21/08:00am 8.2 5.7 84 13.3 23.4 1007.7 4.2
21/07:30am 8.2 5.3 82 14.8 18.4 1007.6 4.2
21/07:00am 8.1 5.2 82 9.7 18.4 1007.5 4.2
21/06:30am 7.6 5.6 87 9.7 23.4 1007.0 4.2
21/06:00am 7.4 5.9 90 14.8 24.5 1006.7 3.9
21/05:30am 7.6 4.7 82 13.3 22.0 1006.9 3.6
21/05:00am 7.6 4.7 82 5.0 14.8 1007.1 2.7
21/04:30am 7.8 4.4 79 8.6 14.8 1007.5 2.1
21/04:00am 8.6 3.6 71 5.0 17.3 1007.9 0.9
21/03:30am 10.1 2.7 60 8.6 15.8 1007.9 0.0
21/03:00am 10.3 1.7 55 8.6 14.8 1007.7 0.0
21/02:30am 10.2 1.8 56 9.7 15.8 1007.7 0.0
21/02:00am 9.8 2.4 60 9.7 20.9 1008.3 0.0
21/01:30am 9.9 2.5 60 11.2 25.6 1008.7 0.0
21/01:00am 9.9 3.0 62 9.7 23.4 1009.3 0.0
21/12:30am 9.7 3.2 64 8.6 23.4 1010.0 0.0
21/12:00am 9.5 3.3 65 9.7 27.0 1010.5 0.0
20/11:30pm 9.3 3.5 67 12.2 22.0 1011.1 7.5
20/11:00pm 9.0 4.2 72 7.2 18.4 1011.9 7.5
20/10:30pm 8.9 4.7 75 8.6 24.5 1012.5 7.5
20/10:00pm 8.5 5.4 81 9.7 25.6 1012.9 7.5
20/09:30pm 8.3 5.8 84 8.6 15.8 1013.9 7.5
20/09:00pm 8.5 5.6 82 7.2 23.4 1014.1 6.9
20/08:30pm 8.7 5.4 80 11.2 24.5 1013.8 6.6
20/08:00pm 8.2 5.5 83 7.2 20.9 1014.0 6.6
20/07:30pm 7.9 5.5 85 9.7 15.8 1014.5 6.3
20/07:00pm 7.7 6.2 90 5.0 15.8 1014.5 6.3
20/06:30pm 8.0 6.6 91 9.7 15.8 1015.7 5.4
20/06:00pm 8.4 6.9 90 11.2 15.8 1015.7 3.6
20/05:30pm 9.3 6.7 84 7.2 14.8 1016.3 1.8
20/05:00pm 10.6 4.9 68 7.2 19.4 1016.1 0.6
20/04:30pm 11.6 4.6 62 5.0 9.7 1015.4 0.0
20/04:00pm 12.7 1.4 46 2.5 13.3 1015.5 0.0
20/03:30pm 12.9 0.3 42 12.2 19.4 1015.0 0.0
20/03:00pm 12.8 0.5 43 9.7 14.8 1015.3 0.0
20/02:30pm 12.9 0.6 43 11.2 22.0 1015.9 0.0
20/02:00pm 13.2 0.9 43 9.7 25.6 1017.3 0.0
20/01:30pm 13.1 0.8 43 13.3 27.0 1017.1 0.0
20/01:00pm 14.0 1.3 42 15.8 28.1 1017.6 0.0
20/12:30pm 13.8 0.8 41 20.9 27.0 1018.5 0.0
20/12:00pm 15.5 1.6 39 17.3 28.1 1019.9 0.0
20/11:30am 15.3 1.1 38 17.3 25.6 1020.9 0.0
20/11:00am 15.2 1.7 40 9.7 20.9 1021.4 0.0

OBSERVATIONS  72 - 96  HOURS

00-24 HOURS 24-48 HOURS 48-72 HOURS 72-96 HOURS 96-120 HOURS Navigation Menu

Date/Time
WST
temperature
°C
Dew Point
°C
Humidity
%
Wind Speed
km/h
Wind Gust
km/h
Wind
Direction
Barometer
mb
Rain Today
mm
20/11:30am 15.3 1.1 38 17.3 25.6 1020.9 0.0
20/11:00am 15.2 1.7 40 9.7 20.9 1021.4 0.0
20/10:30am 14.6 1.2 40 12.2 18.4 1021.9 0.0
20/10:00am 14.1 1.0 41 11.2 20.9 1022.1 0.0
20/09:30am 14.2 1.5 42 7.2 14.8 1022.6 0.0
20/09:00am 13.4 1.7 45 7.2 11.2 1023.0 0.0
20/08:30am 11.7 2.2 52 5.0 8.6 1023.1 0.0
20/08:00am 9.5 1.4 57 7.2 8.6 1023.1 0.0
20/07:30am 8.7 1.4 60 5.0 7.2 1023.4 0.0
20/07:00am 8.0 0.9 61 2.5 6.1 1023.2 0.0
20/06:30am 8.3 0.8 59 5.0 11.2 1023.3 0.0
20/06:00am 8.2 0.4 58 5.0 9.7 1023.6 0.0
20/05:30am 8.1 0.8 60 5.0 9.7 1023.7 0.0
20/05:00am 7.5 0.5 61 3.6 7.2 1024.1 0.0
20/04:30am 7.9 0.8 61 5.0 8.6 1024.3 0.0
20/04:00am 8.2 1.1 61 8.6 12.2 1024.5 0.0
20/03:30am 8.2 1.4 62 3.6 7.2 1024.7 0.0
20/03:00am 8.2 2.0 65 5.0 8.6 1024.7 0.0
20/02:30am 8.3 2.3 66 2.5 7.2 1025.0 0.0
20/02:00am 8.1 2.8 69 6.1 8.6 1025.3 0.0
20/01:30am 7.9 2.8 70 3.6 7.2 1025.7 0.0
20/01:00am 8.1 2.8 69 3.6 9.7 1026.1 0.0
20/12:30am 8.3 2.7 68 3.6 8.6 1026.6 0.0
20/12:00am 8.3 3.2 70 3.6 8.6 1026.8 0.0
19/11:30pm 8.3 3.2 70 7.2 9.7 1027.0 0.0
19/11:00pm 8.0 2.9 70 3.6 7.2 1027.2 0.0
19/10:30pm 7.5 2.8 72 1.1 5.0 1027.8 0.0
19/10:00pm 8.1 3.2 71 2.5 11.2 1027.6 0.0
19/09:30pm 8.1 3.2 71 2.5 7.2 1027.5 0.0
19/09:00pm 7.8 2.7 70 0.0 6.1 1027.8 0.0
19/08:30pm 15.3 1.1 38 17.3 25.6 1020.9 0.0
19/08:00pm 7.8 4.2 78 1.1 2.5 1028.2 0.0
19/07:30pm 7.5 4.5 81 0.0 2.5 1028.0 0.0
19/07:00pm 8.1 4.9 80 0.0 0.0 1028.1 0.0
19/06:30pm 9.2 4.8 74 0.0 2.5 1028.4 0.0
19/06:00pm 10.4 5.6 72 3.6 7.2 1028.2 0.0
19/05:30pm 11.8 5.7 66 1.1 6.1 1028.3 0.0
19/05:00pm 16.1 6.0 51 5.0 8.6 1027.9 0.0
19/04:30pm 16.5 6.0 50 5.0 13.3 1027.9 0.0
19/04:00pm 16.4 7.6 56 2.5 7.2 1027.7 0.0
19/03:30pm 14.2 5.6 56 0.0 6.1 1027.5 0.0
19/03:00pm 17.3 6.8 50 1.1 6.1 1027.7 0.0
19/02:30pm 15.2 6.0 54 6.1 8.6 1028.0 0.0
19/02:00pm 16.0 4.7 47 2.5 6.1 1028.1 0.0
19/01:30pm 15.5 5.1 50 5.0 9.7 1028.6 0.0
19/01:00pm 14.8 5.3 53 3.6 12.2 1029.0 0.0
19/12:30pm 14.7 5.5 54 3.6 11.2 1029.4 0.0
19/12:00pm 15.0 5.0 51 3.6 8.6 1029.7 0.0
19/11:30am 17.7 4.3 41 3.6 12.2 1030.1 0.0
19/11:00am 17.9 5.2 43 0.0 8.6 1030.2 0.0

OBSERVATIONS  96 - 120  HOURS

00-24 HOURS 24-48 HOURS 48-72 HOURS 72-96 HOURS 96-120 HOURS Navigation Menu

Date/Time
WST
temperature
°C
Dew Point
°C
Humidity
%
Wind Speed
km/h
Wind Gust
km/h
Wind
Direction
Barometer
mb
Rain Today
mm
19/11:30am 17.7 4.3 41 3.6 12.2 1030.1 0.0
19/11:00am 17.9 5.2 43 0.0 8.6 1030.2 0.0
19/10:30am 17.5 5.1 44 5.0 12.2 1030.4 0.0
19/10:00am 16.2 5.5 49 2.5 11.2 1030.3 0.0
19/09:30am 16.7 5.6 48 3.6 6.1 1030.1 0.0
19/09:00am 14.9 5.9 55 2.5 8.6 1030.2 0.0
19/08:30am 12.7 6.7 67 1.1 2.5 1029.9 0.0
19/08:00am 9.7 6.4 80 0.0 2.5 1029.5 0.0
19/07:30am 6.1 6.0 99 0.0 2.5 1029.1 0.0
19/07:00am 3.8 3.4 97 0.0 2.5 1028.6 0.0
19/06:30am 3.5 3.1 97 0.0 0.0 1028.4 0.0
19/06:00am 3.6 3.0 96 0.0 0.0 1028.0 0.0
19/05:30am 3.9 3.3 96 0.0 1.1 1027.7 0.0
19/05:00am 4.2 3.6 96 0.0 0.0 1027.5 0.0
19/04:30am 4.2 3.5 95 0.0 0.0 1027.3 0.0
19/04:00am 4.4 3.5 94 0.0 0.0 1026.9 0.0
19/03:30am 4.5 3.5 93 0.0 0.0 1026.9 0.0
19/03:00am 5.0 4.0 93 0.0 0.0 1026.9 0.0
19/02:30am 5.7 4.5 92 0.0 0.0 1026.9 0.0
19/02:00am 5.8 4.3 90 0.0 0.0 1027.3 0.0
19/01:30am 6.7 4.5 86 0.0 0.0 1027.3 0.0
19/01:00am 8.1 4.9 80 0.0 3.6 1027.2 0.0
19/12:30am 8.9 5.6 80 3.6 7.2 1027.1 0.0
19/12:00am 9.0 5.6 79 2.5 6.1 1027.1 0.0
18/11:30pm 8.9 5.3 78 5.0 9.7 1027.3 2.1
18/11:00pm 9.1 4.7 74 0.0 7.2 1027.2 2.1
18/10:30pm 9.9 5.3 73 2.5 13.3 1027.1 2.1
18/10:00pm 9.7 4.9 72 1.1 6.1 1026.9 2.1
18/09:30pm 9.1 4.7 74 0.0 5.0 1026.9 2.1
18/09:00pm 9.9 4.9 71 2.5 6.1 1026.7 2.1
18/08:30pm 10.1 5.1 71 1.1 6.1 1026.5 2.1
18/08:00pm 10.3 5.7 73 2.5 11.2 1026.4 2.1
18/07:30pm 10.2 5.0 70 0.0 7.2 1026.3 2.1
18/07:00pm 10.2 5.2 71 5.0 14.8 1026.1 2.1
18/06:30pm 9.8 5.0 72 2.5 7.2 1025.7 2.1
18/06:00pm 10.1 5.1 71 1.1 8.6 1025.3 2.1
18/05:30pm 10.7 6.3 74 2.5 6.1 1025.0 2.1
18/05:00pm 11.4 6.9 74 1.1 8.6 1024.7 2.1
18/04:30pm 13.4 5.8 60 5.0 7.2 1024.4 1.8
18/04:00pm 14.5 4.5 51 6.1 9.7 1024.2 1.8
18/03:30pm 16.8 6.6 51 8.6 13.3 1024.2 1.8
18/03:00pm 17.0 6.5 50 6.1 11.2 1024.1 1.8
18/02:30pm 16.9 6.4 50 2.5 14.8 1023.8 1.8
18/02:00pm 13.9 7.7 66 1.1 8.6 1023.7 1.8
18/01:30pm 13.9 6.0 59 8.6 15.8 1023.8 1.5
18/01:00pm 15.6 5.2 50 5.0 12.2 1023.6 1.5
18/12:30pm 15.0 5.8 54 2.5 13.3 1023.8 1.5
18/12:00pm 14.4 4.9 53 3.6 15.8 1023.9 1.2
18/11:30am 16.4 6.0 50 7.2 13.3 1023.7 1.2
18/11:00am 16.1 5.7 50 12.2 17.3 1023.6 1.2

00-24 HOURS 24-48 HOURS 48-72 HOURS 72-96 HOURS 96-120 HOURS Navigation Menu


PLEASE CONSIDER LIKING/SHARING ON FACEBOOK WITH LINK ABOVE
THANK YOU.

Check out my video archive on my YouTube channel which has all my time-lapse videos created
Please feel free to donate to help with improvements and keep this site going with the link below(PayPal)
Cumulus Top Weather Sites World Weather Websites Paulen Top 100 Weatherstation List

Page updated 23/08/2017 11:30 AM
powered by Cumulusv1.9.4 (1099)
Free counters!
bonsai
Member of The Southern Bonsai Club


Speaker Icon Turns Ambient Background Sounds ON/OFF